sensor_id;sensor_type;location;lat;lon;timestamp;temperature;humidity
74220;DHT22;62580;54.416;11.120;2022-10-16T00:04:21;20.40;64.80
74220;DHT22;62580;54.416;11.120;2022-10-16T00:14:21;20.40;64.70
74220;DHT22;62580;54.416;11.120;2022-10-16T00:24:23;20.40;64.70
74220;DHT22;62580;54.416;11.120;2022-10-16T00:34:24;20.40;64.50
74220;DHT22;62580;54.416;11.120;2022-10-16T00:44:46;20.40;64.50
74220;DHT22;62580;54.416;11.120;2022-10-16T00:54:49;20.40;64.30
74220;DHT22;62580;54.416;11.120;2022-10-16T01:04:52;20.30;64.20
74220;DHT22;62580;54.416;11.120;2022-10-16T01:14:58;20.40;64.00
74220;DHT22;62580;54.416;11.120;2022-10-16T01:25:04;20.40;63.60
74220;DHT22;62580;54.416;11.120;2022-10-16T01:35:12;20.40;63.50
74220;DHT22;62580;54.416;11.120;2022-10-16T01:45:17;20.40;63.40
74220;DHT22;62580;54.416;11.120;2022-10-16T01:55:24;20.30;63.30
74220;DHT22;62580;54.416;11.120;2022-10-16T02:05:29;20.30;63.20
74220;DHT22;62580;54.416;11.120;2022-10-16T02:15:32;20.30;63.30
74220;DHT22;62580;54.416;11.120;2022-10-16T02:25:35;20.30;63.40
74220;DHT22;62580;54.416;11.120;2022-10-16T02:35:40;20.30;63.50
74220;DHT22;62580;54.416;11.120;2022-10-16T02:45:41;20.30;63.60
74220;DHT22;62580;54.416;11.120;2022-10-16T02:55:43;20.20;63.80
74220;DHT22;62580;54.416;11.120;2022-10-16T03:05:44;20.30;64.00
74220;DHT22;62580;54.416;11.120;2022-10-16T03:15:46;20.30;63.80
74220;DHT22;62580;54.416;11.120;2022-10-16T03:25:47;20.30;63.50
74220;DHT22;62580;54.416;11.120;2022-10-16T03:35:52;20.30;63.40
74220;DHT22;62580;54.416;11.120;2022-10-16T03:45:53;20.30;63.30
74220;DHT22;62580;54.416;11.120;2022-10-16T03:55:57;20.30;63.20
74220;DHT22;62580;54.416;11.120;2022-10-16T04:05:57;20.20;63.10
74220;DHT22;62580;54.416;11.120;2022-10-16T04:15:59;20.20;63.20
74220;DHT22;62580;54.416;11.120;2022-10-16T04:26:00;20.30;63.40
74220;DHT22;62580;54.416;11.120;2022-10-16T04:36:03;20.50;63.30
74220;DHT22;62580;54.416;11.120;2022-10-16T04:46:04;20.60;63.30
74220;DHT22;62580;54.416;11.120;2022-10-16T04:56:06;20.70;63.30
74220;DHT22;62580;54.416;11.120;2022-10-16T05:06:07;20.70;63.30
74220;DHT22;62580;54.416;11.120;2022-10-16T05:16:09;20.80;63.50
74220;DHT22;62580;54.416;11.120;2022-10-16T05:26:10;20.90;63.50
74220;DHT22;62580;54.416;11.120;2022-10-16T05:36:12;21.50;62.80
74220;DHT22;62580;54.416;11.120;2022-10-16T05:46:12;21.00;64.10
74220;DHT22;62580;54.416;11.120;2022-10-16T05:56:14;21.10;64.10
74220;DHT22;62580;54.416;11.120;2022-10-16T06:06:17;21.10;64.30
74220;DHT22;62580;54.416;11.120;2022-10-16T06:16:19;21.00;61.70
74220;DHT22;62580;54.416;11.120;2022-10-16T06:26:22;21.00;61.20
74220;DHT22;62580;54.416;11.120;2022-10-16T06:36:25;21.00;60.70
74220;DHT22;62580;54.416;11.120;2022-10-16T06:46:26;20.90;60.70
74220;DHT22;62580;54.416;11.120;2022-10-16T06:56:28;20.80;61.10
74220;DHT22;62580;54.416;11.120;2022-10-16T07:06:32;20.70;61.40
74220;DHT22;62580;54.416;11.120;2022-10-16T07:16:34;20.70;61.70
74220;DHT22;62580;54.416;11.120;2022-10-16T07:26:36;20.60;61.80
74220;DHT22;62580;54.416;11.120;2022-10-16T07:36:38;20.60;61.90
74220;DHT22;62580;54.416;11.120;2022-10-16T07:46:39;20.50;61.80
74220;DHT22;62580;54.416;11.120;2022-10-16T07:56:41;20.50;61.90
74220;DHT22;62580;54.416;11.120;2022-10-16T08:06:42;20.40;61.50
74220;DHT22;62580;54.416;11.120;2022-10-16T08:16:44;20.40;61.40
74220;DHT22;62580;54.416;11.120;2022-10-16T08:26:44;20.40;62.10
74220;DHT22;62580;54.416;11.120;2022-10-16T08:36:46;20.40;62.30
74220;DHT22;62580;54.416;11.120;2022-10-16T08:46:53;20.30;62.10
74220;DHT22;62580;54.416;11.120;2022-10-16T08:57:07;20.30;62.20
74220;DHT22;62580;54.416;11.120;2022-10-16T09:07:12;20.30;62.20
74220;DHT22;62580;54.416;11.120;2022-10-16T09:17:30;20.30;62.30
74220;DHT22;62580;54.416;11.120;2022-10-16T09:27:32;20.30;62.50
74220;DHT22;62580;54.416;11.120;2022-10-16T09:37:35;20.20;62.50
74220;DHT22;62580;54.416;11.120;2022-10-16T09:47:40;20.30;62.70
74220;DHT22;62580;54.416;11.120;2022-10-16T09:57:49;20.30;62.80
74220;DHT22;62580;54.416;11.120;2022-10-16T10:07:55;20.40;62.90
74220;DHT22;62580;54.416;11.120;2022-10-16T10:17:58;20.50;62.80
74220;DHT22;62580;54.416;11.120;2022-10-16T10:28:16;20.50;63.00
74220;DHT22;62580;54.416;11.120;2022-10-16T10:38:30;20.50;62.90
74220;DHT22;62580;54.416;11.120;2022-10-16T10:48:47;20.50;62.80
74220;DHT22;62580;54.416;11.120;2022-10-16T10:59:09;20.60;62.80
74220;DHT22;62580;54.416;11.120;2022-10-16T11:09:19;20.60;62.70
74220;DHT22;62580;54.416;11.120;2022-10-16T11:19:31;20.60;62.70
74220;DHT22;62580;54.416;11.120;2022-10-16T11:29:43;20.70;62.50
74220;DHT22;62580;54.416;11.120;2022-10-16T11:39:46;20.80;62.40
74220;DHT22;62580;54.416;11.120;2022-10-16T11:49:50;20.90;62.10
74220;DHT22;62580;54.416;11.120;2022-10-16T11:59:57;21.00;62.10
74220;DHT22;62580;54.416;11.120;2022-10-16T12:10:10;21.00;61.50
74220;DHT22;62580;54.416;11.120;2022-10-16T12:20:29;21.00;60.70
74220;DHT22;62580;54.416;11.120;2022-10-16T12:30:33;21.10;60.20
74220;DHT22;62580;54.416;11.120;2022-10-16T12:40:37;21.00;60.00
74220;DHT22;62580;54.416;11.120;2022-10-16T12:50:39;21.30;59.20
74220;DHT22;62580;54.416;11.120;2022-10-16T13:00:44;21.40;58.90
74220;DHT22;62580;54.416;11.120;2022-10-16T13:10:55;21.50;58.50
74220;DHT22;62580;54.416;11.120;2022-10-16T13:21:08;21.40;58.40
74220;DHT22;62580;54.416;11.120;2022-10-16T13:31:15;21.30;58.30
74220;DHT22;62580;54.416;11.120;2022-10-16T13:41:19;21.30;58.50
74220;DHT22;62580;54.416;11.120;2022-10-16T13:51:21;21.20;58.50
74220;DHT22;62580;54.416;11.120;2022-10-16T14:01:26;21.10;58.50
74220;DHT22;62580;54.416;11.120;2022-10-16T14:11:28;21.10;59.20
74220;DHT22;62580;54.416;11.120;2022-10-16T14:21:33;21.10;59.40
74220;DHT22;62580;54.416;11.120;2022-10-16T14:31:34;21.10;61.50
74220;DHT22;62580;54.416;11.120;2022-10-16T14:41:43;21.20;61.90
74220;DHT22;62580;54.416;11.120;2022-10-16T14:51:45;21.20;62.00
74220;DHT22;62580;54.416;11.120;2022-10-16T15:01:47;21.30;62.50
74220;DHT22;62580;54.416;11.120;2022-10-16T15:11:47;21.30;61.20
74220;DHT22;62580;54.416;11.120;2022-10-16T15:21:49;21.30;62.00
74220;DHT22;62580;54.416;11.120;2022-10-16T15:31:50;21.30;64.50
74220;DHT22;62580;54.416;11.120;2022-10-16T15:41:52;21.30;68.10
74220;DHT22;62580;54.416;11.120;2022-10-16T15:51:53;21.30;67.20
74220;DHT22;62580;54.416;11.120;2022-10-16T16:01:55;21.30;67.60
74220;DHT22;62580;54.416;11.120;2022-10-16T16:11:56;21.30;67.10
74220;DHT22;62580;54.416;11.120;2022-10-16T16:21:58;21.30;66.50
74220;DHT22;62580;54.416;11.120;2022-10-16T16:31:59;21.40;67.50
74220;DHT22;62580;54.416;11.120;2022-10-16T16:42:01;21.40;66.10
74220;DHT22;62580;54.416;11.120;2022-10-16T16:52:02;21.50;67.30
74220;DHT22;62580;54.416;11.120;2022-10-16T17:02:04;21.50;68.20
74220;DHT22;62580;54.416;11.120;2022-10-16T17:12:05;21.50;67.50
74220;DHT22;62580;54.416;11.120;2022-10-16T17:22:07;21.80;73.30
74220;DHT22;62580;54.416;11.120;2022-10-16T17:32:07;21.90;72.20
74220;DHT22;62580;54.416;11.120;2022-10-16T17:42:09;22.00;71.80
74220;DHT22;62580;54.416;11.120;2022-10-16T17:52:10;22.00;70.80
74220;DHT22;62580;54.416;11.120;2022-10-16T18:02:12;22.00;70.30
74220;DHT22;62580;54.416;11.120;2022-10-16T18:12:13;22.00;70.40
74220;DHT22;62580;54.416;11.120;2022-10-16T18:22:16;22.00;70.30
74220;DHT22;62580;54.416;11.120;2022-10-16T18:32:17;22.00;70.00
74220;DHT22;62580;54.416;11.120;2022-10-16T18:42:20;22.00;70.50
74220;DHT22;62580;54.416;11.120;2022-10-16T18:52:20;22.00;69.80
74220;DHT22;62580;54.416;11.120;2022-10-16T19:02:23;22.00;69.30
74220;DHT22;62580;54.416;11.120;2022-10-16T19:12:23;22.00;69.40
74220;DHT22;62580;54.416;11.120;2022-10-16T19:22:25;22.00;69.30
74220;DHT22;62580;54.416;11.120;2022-10-16T19:32:26;22.00;69.20
74220;DHT22;62580;54.416;11.120;2022-10-16T19:42:28;22.00;69.20
74220;DHT22;62580;54.416;11.120;2022-10-16T19:52:29;22.00;69.60
74220;DHT22;62580;54.416;11.120;2022-10-16T20:02:31;22.00;69.50
74220;DHT22;62580;54.416;11.120;2022-10-16T20:12:32;22.00;69.50
74220;DHT22;62580;54.416;11.120;2022-10-16T20:22:34;22.00;69.20
74220;DHT22;62580;54.416;11.120;2022-10-16T20:32:34;22.00;69.10
74220;DHT22;62580;54.416;11.120;2022-10-16T20:42:36;22.00;69.00
74220;DHT22;62580;54.416;11.120;2022-10-16T20:52:37;22.00;68.90
74220;DHT22;62580;54.416;11.120;2022-10-16T21:02:39;22.00;68.80
74220;DHT22;62580;54.416;11.120;2022-10-16T21:12:40;22.00;69.00
74220;DHT22;62580;54.416;11.120;2022-10-16T21:22:42;22.00;68.70
74220;DHT22;62580;54.416;11.120;2022-10-16T21:32:42;21.90;68.50
74220;DHT22;62580;54.416;11.120;2022-10-16T21:42:44;21.80;68.60
74220;DHT22;62580;54.416;11.120;2022-10-16T21:52:45;21.60;68.50
74220;DHT22;62580;54.416;11.120;2022-10-16T22:02:47;21.60;68.50
74220;DHT22;62580;54.416;11.120;2022-10-16T22:12:48;21.50;68.40
74220;DHT22;62580;54.416;11.120;2022-10-16T22:22:49;21.40;68.30
74220;DHT22;62580;54.416;11.120;2022-10-16T22:32:50;21.40;68.30
74220;DHT22;62580;54.416;11.120;2022-10-16T22:42:52;21.30;68.20
74220;DHT22;62580;54.416;11.120;2022-10-16T22:52:54;21.30;68.20
74220;DHT22;62580;54.416;11.120;2022-10-16T23:02:56;21.20;68.10
74220;DHT22;62580;54.416;11.120;2022-10-16T23:12:57;21.20;68.10
74220;DHT22;62580;54.416;11.120;2022-10-16T23:22:59;21.10;67.90
74220;DHT22;62580;54.416;11.120;2022-10-16T23:33:00;21.10;67.90
74220;DHT22;62580;54.416;11.120;2022-10-16T23:43:02;21.10;67.80
74220;DHT22;62580;54.416;11.120;2022-10-16T23:53:03;21.10;67.70
